Time;durP1;ratioP1;P1;durP2;ratioP2;P2;SDS_P1;SDS_P2;PMS_P1;PMS_P2;Temp;Humidity;BMP_temperature;BMP_pressure;BME280_temperature;BME280_humidity;BME280_pressure;Samples;Min_cycle;Max_cycle;Signal;HPM_P1;HPM_P2
2023/12/17 00:01:53;;;;;;;6.50;4.80;;;;;;;8.74;84.15;102055.65;109010;1256;74465;-69
2023/12/17 00:04:19;;;;;;;4.60;2.00;;;;;;;8.76;84.08;102055.59;108895;1256;138409;-61
2023/12/17 00:06:46;;;;;;;3.70;2.90;;;;;;;8.78;84.02;102053.23;108828;1256;72432;-61
2023/12/17 00:09:13;;;;;;;2.40;1.60;;;;;;;8.80;84.09;102054.55;108839;1256;138495;-61
2023/12/17 00:11:43;;;;;;;2.30;1.80;;;;;;;8.82;84.09;102052.35;108984;1254;61278;-61
2023/12/17 00:14:11;;;;;;;1.40;1.10;;;;;;;8.83;84.17;102057.33;109018;1256;74270;-61
2023/12/17 00:16:39;;;;;;;2.00;1.70;;;;;;;8.85;84.06;102058.67;108859;1260;138445;-61
2023/12/17 00:19:05;;;;;;;1.50;1.10;;;;;;;8.86;84.10;102051.22;108887;1257;71510;-61
2023/12/17 00:21:32;;;;;;;2.50;2.30;;;;;;;8.90;84.04;102038.64;105544;1264;139285;-60
2023/12/17 00:23:59;;;;;;;1.70;1.60;;;;;;;8.92;83.96;102034.55;104734;1263;61710;-60
2023/12/17 00:26:26;;;;;;;10.70;7.20;;;;;;;8.93;84.01;102043.89;104874;1256;75916;-61
2023/12/17 00:28:52;;;;;;;3.70;3.00;;;;;;;8.95;84.07;102041.02;104623;1259;142084;-60
2023/12/17 00:31:19;;;;;;;7.90;5.20;;;;;;;8.97;84.10;102023.23;104622;1257;73271;-61
2023/12/17 00:33:46;;;;;;;4.40;3.30;;;;;;;8.97;84.07;102012.35;104564;1256;138538;-61
2023/12/17 00:36:13;;;;;;;4.30;3.20;;;;;;;8.97;84.08;102008.70;104575;1256;61260;-62
2023/12/17 00:38:40;;;;;;;5.20;4.00;;;;;;;8.95;84.10;102005.13;104681;1260;74048;-61
2023/12/17 00:41:07;;;;;;;6.10;3.70;;;;;;;8.95;84.08;102000.36;104789;1262;138287;-68
2023/12/17 00:43:35;;;;;;;10.90;6.90;;;;;;;8.94;84.22;101994.73;104706;1262;72776;-68
2023/12/17 00:46:02;;;;;;;7.30;5.10;;;;;;;8.94;84.23;101982.14;104587;1263;139114;-70
2023/12/17 00:48:29;;;;;;;7.10;5.00;;;;;;;8.94;84.22;101979.33;108766;1258;61182;-68
2023/12/17 00:50:55;;;;;;;10.50;5.90;;;;;;;8.95;84.31;101973.05;107244;1256;138499;-67
2023/12/17 00:53:22;;;;;;;7.80;5.30;;;;;;;8.96;84.30;101969.42;104639;1259;67479;-68
2023/12/17 00:55:49;;;;;;;6.90;4.10;;;;;;;8.95;84.18;101969.24;104639;1257;72702;-68
2023/12/17 00:58:16;;;;;;;6.00;3.00;;;;;;;8.97;84.35;101963.88;104739;1261;138472;-68
2023/12/17 01:00:42;;;;;;;10.10;5.90;;;;;;;8.98;84.32;101960.45;104799;1261;61232;-69
2023/12/17 01:03:09;;;;;;;10.40;6.20;;;;;;;8.99;84.32;101960.65;104317;1257;140406;-69
2023/12/17 01:05:37;;;;;;;4.50;2.60;;;;;;;9.01;84.39;101964.77;104448;1258;68316;-69
2023/12/17 01:08:04;;;;;;;14.60;8.30;;;;;;;9.00;84.29;101964.39;104586;1260;72298;-68
2023/12/17 01:10:30;;;;;;;3.60;2.40;;;;;;;8.99;84.30;101962.27;104796;1260;139021;-68
2023/12/17 01:12:57;;;;;;;4.10;2.70;;;;;;;8.99;84.28;101961.70;104774;1256;61786;-68
2023/12/17 01:15:24;;;;;;;4.40;2.70;;;;;;;9.00;84.34;101978.73;104623;1257;138539;-69
2023/12/17 01:17:51;;;;;;;3.70;2.60;;;;;;;9.00;84.39;101971.41;104816;1260;66869;-62
2023/12/17 01:20:18;;;;;;;6.30;4.50;;;;;;;9.01;84.40;101959.18;104525;1264;71883;-67
2023/12/17 01:22:45;;;;;;;3.20;2.50;;;;;;;9.01;84.43;101953.61;104561;1261;138359;-62
2023/12/17 01:25:11;;;;;;;5.70;2.70;;;;;;;9.03;84.42;101948.05;105017;1261;61540;-62
2023/12/17 01:27:38;;;;;;;5.10;3.00;;;;;;;9.03;84.47;101954.71;104688;1262;138299;-62
2023/12/17 01:30:06;;;;;;;3.40;2.40;;;;;;;9.03;84.47;101948.09;104725;1261;67669;-62
2023/12/17 01:32:33;;;;;;;3.10;2.60;;;;;;;9.02;84.45;101949.10;108754;1258;73705;-62
2023/12/17 01:35:00;;;;;;;4.00;2.50;;;;;;;9.02;84.42;101956.77;108508;1257;138224;-63
2023/12/17 01:37:26;;;;;;;4.70;2.90;;;;;;;9.03;84.52;101953.32;108829;1259;60282;-62
2023/12/17 01:39:53;;;;;;;4.80;2.60;;;;;;;9.04;84.41;101959.70;108703;1256;138937;-69
2023/12/17 01:42:20;;;;;;;3.70;2.60;;;;;;;9.06;84.65;101948.04;109004;1257;65018;-68
2023/12/17 01:44:46;;;;;;;2.90;2.40;;;;;;;9.07;84.73;101927.98;108873;1255;73870;-68
2023/12/17 01:47:13;;;;;;;5.10;2.60;;;;;;;9.08;84.72;101927.67;108820;1255;59461;-60
2023/12/17 01:49:41;;;;;;;4.20;2.50;;;;;;;9.09;84.62;101926.69;108753;1261;60428;-69
2023/12/17 01:52:08;;;;;;;3.80;2.40;;;;;;;9.10;84.60;101925.31;108592;1256;139271;-67
2023/12/17 01:54:34;;;;;;;5.90;3.50;;;;;;;9.11;84.58;101923.64;108906;1257;65173;-67
2023/12/17 01:57:01;;;;;;;3.00;2.40;;;;;;;9.13;84.56;101938.10;104592;1260;140647;-61
2023/12/17 01:59:28;;;;;;;3.80;2.50;;;;;;;9.14;84.51;101945.84;103579;1261;61354;-61
2023/12/17 02:01:55;;;;;;;3.90;2.90;;;;;;;9.14;84.42;101949.02;104741;1263;61386;-68
2023/12/17 02:04:22;;;;;;;6.30;2.70;;;;;;;9.15;84.43;101957.43;104525;1257;139817;-69
2023/12/17 02:06:48;;;;;;;5.90;3.60;;;;;;;9.14;84.39;101960.05;104517;1261;67590;-62
2023/12/17 02:09:15;;;;;;;4.10;2.40;;;;;;;9.15;84.43;101962.38;104289;1258;138318;-62
2023/12/17 02:11:42;;;;;;;4.00;2.30;;;;;;;9.16;84.37;101971.66;104769;1262;61353;-62
2023/12/17 02:14:09;;;;;;;4.00;2.40;;;;;;;9.15;84.46;101976.38;104776;1263;61665;-68
2023/12/17 02:16:36;;;;;;;3.40;2.00;;;;;;;9.16;84.49;101968.34;105627;1259;138977;-61
2023/12/17 02:19:02;;;;;;;5.50;2.60;;;;;;;9.17;84.38;101960.66;104699;1257;65086;-68
2023/12/17 02:21:29;;;;;;;5.00;2.40;;;;;;;9.15;84.40;101959.39;104592;1257;139059;-68
2023/12/17 02:23:56;;;;;;;3.80;2.20;;;;;;;9.16;84.42;101968.52;104695;1256;61209;-67
2023/12/17 02:26:22;;;;;;;5.00;2.40;;;;;;;9.16;84.33;101978.17;105021;1257;61527;-60
2023/12/17 02:28:49;;;;;;;5.10;2.90;;;;;;;9.17;84.36;101967.69;104751;1256;138333;-68
2023/12/17 02:31:16;;;;;;;3.90;2.30;;;;;;;9.18;84.40;101974.36;104781;1260;67309;-62
2023/12/17 02:33:43;;;;;;;4.50;2.30;;;;;;;9.17;84.45;101977.47;104665;1262;138970;-70
2023/12/17 02:36:09;;;;;;;4.70;2.10;;;;;;;9.17;84.34;101981.15;104660;1261;61213;-61
2023/12/17 02:38:36;;;;;;;4.00;2.20;;;;;;;9.16;84.29;101983.95;108895;1256;58940;-62
2023/12/17 02:41:03;;;;;;;4.90;2.40;;;;;;;9.17;84.34;101986.07;108819;1257;138366;-62
2023/12/17 02:43:30;;;;;;;5.40;2.40;;;;;;;9.17;84.32;101989.74;105066;1260;67348;-68
2023/12/17 02:45:57;;;;;;;4.30;2.60;;;;;;;9.18;84.22;102000.10;104561;1255;138759;-68
2023/12/17 02:48:23;;;;;;;4.80;2.50;;;;;;;9.18;84.28;101991.91;104751;1260;62114;-62
2023/12/17 02:50:50;;;;;;;4.00;2.70;;;;;;;9.19;84.32;101997.58;104488;1261;138401;-67
2023/12/17 02:53:17;;;;;;;7.50;2.70;;;;;;;9.19;84.21;102007.38;104671;1257;75648;-68
2023/12/17 02:55:44;;;;;;;7.20;3.10;;;;;;;9.19;84.18;102000.70;104799;1260;67708;-60
2023/12/17 02:58:11;;;;;;;5.50;2.80;;;;;;;9.19;84.28;102004.21;104767;1258;138502;-61
2023/12/17 03:00:37;;;;;;;5.90;2.50;;;;;;;9.20;84.30;101998.14;104689;1258;61263;-67
2023/12/17 03:03:04;;;;;;;4.80;2.20;;;;;;;9.20;84.27;101994.81;104659;1258;138458;-68
2023/12/17 03:05:31;;;;;;;5.90;2.40;;;;;;;9.20;84.18;101997.60;104785;1258;75831;-68
2023/12/17 03:07:58;;;;;;;6.10;2.60;;;;;;;9.18;84.14;101997.73;104837;1260;67237;-68
2023/12/17 03:10:24;;;;;;;3.60;2.50;;;;;;;9.18;84.15;102014.13;104695;1260;138736;-68
2023/12/17 03:12:51;;;;;;;4.40;2.50;;;;;;;9.18;84.15;102016.08;104785;1260;61312;-61
2023/12/17 03:15:18;;;;;;;4.90;2.50;;;;;;;9.20;84.26;102038.42;104596;1256;138895;-61
2023/12/17 03:17:45;;;;;;;4.80;2.50;;;;;;;9.20;84.22;102038.77;104828;1259;75476;-67
2023/12/17 03:20:11;;;;;;;6.70;2.70;;;;;;;9.20;84.21;102038.61;104828;1264;66232;-61
2023/12/17 03:22:38;;;;;;;3.60;2.50;;;;;;;9.21;84.20;102044.59;104596;1257;138198;-60
2023/12/17 03:25:05;;;;;;;4.20;2.20;;;;;;;9.22;84.27;102054.98;104830;1260;61366;-60
2023/12/17 03:27:32;;;;;;;5.50;2.60;;;;;;;9.23;84.15;102062.56;104775;1259;138676;-62
2023/12/17 03:29:59;;;;;;;7.80;2.90;;;;;;;9.24;84.27;102066.84;104526;1257;75264;-61
2023/12/17 03:32:25;;;;;;;7.00;2.80;;;;;;;9.24;84.25;102065.09;104604;1263;66702;-60
2023/12/17 03:34:52;;;;;;;3.80;2.40;;;;;;;9.25;84.23;102070.02;104471;1258;138667;-62
2023/12/17 03:37:19;;;;;;;6.50;2.50;;;;;;;9.25;84.17;102073.36;104788;1260;62860;-62
2023/12/17 03:39:46;;;;;;;5.00;2.60;;;;;;;9.25;84.24;102076.71;104953;1257;138889;-61
2023/12/17 03:42:13;;;;;;;4.80;2.70;;;;;;;9.25;84.22;102075.46;104785;1257;74282;-69
2023/12/17 03:44:39;;;;;;;5.60;2.40;;;;;;;9.26;84.22;102067.11;104897;1257;67511;-61
2023/12/17 03:47:06;;;;;;;6.30;2.80;;;;;;;9.27;84.20;102065.91;104492;1257;138584;-61
2023/12/17 03:49:33;;;;;;;6.40;2.80;;;;;;;9.27;84.18;102070.98;104613;1256;61315;-68
2023/12/17 03:52:02;;;;;;;4.70;2.50;;;;;;;9.25;84.16;102080.40;104552;1256;138247;-69
2023/12/17 03:54:28;;;;;;;6.20;2.80;;;;;;;9.25;84.15;102081.75;104707;1258;75267;-62
2023/12/17 03:56:55;;;;;;;5.80;2.80;;;;;;;9.24;84.15;102082.63;104665;1258;138570;-68
2023/12/17 03:59:22;;;;;;;5.70;3.30;;;;;;;9.24;84.20;102089.45;104570;1260;72965;-62
2023/12/17 04:01:49;;;;;;;6.00;3.20;;;;;;;9.22;84.19;102095.81;104640;1257;61259;-62
2023/12/17 04:04:15;;;;;;;4.80;2.70;;;;;;;9.22;84.24;102092.63;104034;1260;139231;-67
2023/12/17 04:06:43;;;;;;;8.40;3.40;;;;;;;9.22;84.24;102097.73;104521;1257;74076;-67
2023/12/17 04:09:10;;;;;;;5.20;2.90;;;;;;;9.22;84.30;102094.04;104799;1254;138708;-67
2023/12/17 04:11:37;;;;;;;4.90;2.60;;;;;;;9.21;84.25;102083.46;106063;1256;73851;-61
2023/12/17 04:14:03;;;;;;;4.60;3.20;;;;;;;9.20;84.25;102077.69;104809;1257;61382;-62
2023/12/17 04:16:30;;;;;;;5.50;2.60;;;;;;;9.20;84.23;102071.53;104621;1260;138292;-62
2023/12/17 04:18:57;;;;;;;6.90;2.40;;;;;;;9.19;84.30;102067.30;104716;1260;74604;-61
2023/12/17 04:21:24;;;;;;;6.30;2.90;;;;;;;9.19;84.43;102067.43;104537;1256;138914;-63
2023/12/17 04:23:51;;;;;;;4.90;2.70;;;;;;;9.17;84.69;102073.13;104527;1260;73683;-60
2023/12/17 04:26:18;;;;;;;3.80;2.30;;;;;;;9.16;84.73;102074.14;104832;1257;66361;-61
2023/12/17 04:28:45;;;;;;;4.70;2.70;;;;;;;9.14;84.61;102075.94;108799;1255;139325;-61
2023/12/17 04:31:12;;;;;;;4.30;2.60;;;;;;;9.14;84.67;102077.88;108769;1257;75829;-61
2023/12/17 04:33:38;;;;;;;6.10;2.80;;;;;;;9.15;84.64;102075.85;108481;1257;140286;-62
2023/12/17 04:36:05;;;;;;;3.40;2.30;;;;;;;9.14;84.54;102077.35;108396;1255;73176;-61
2023/12/17 04:38:32;;;;;;;4.50;2.80;;;;;;;9.14;84.57;102075.09;108893;1256;65807;-61
2023/12/17 04:40:58;;;;;;;3.70;2.40;;;;;;;9.14;84.58;102083.66;108809;1256;138220;-61
2023/12/17 04:43:26;;;;;;;5.70;2.80;;;;;;;9.13;84.62;102089.59;108968;1255;74744;-61
2023/12/17 04:45:52;;;;;;;5.30;3.10;;;;;;;9.16;84.70;102101.08;108000;1255;138339;-61
2023/12/17 04:48:19;;;;;;;6.80;3.00;;;;;;;9.17;84.67;102097.80;104624;1260;73664;-60
2023/12/17 04:50:46;;;;;;;8.80;3.00;;;;;;;9.18;84.68;102114.52;104601;1259;63378;-61
2023/12/17 04:53:16;;;;;;;6.60;2.50;;;;;;;9.19;84.61;102123.11;104642;1257;61354;-62
2023/12/17 04:55:42;;;;;;;4.40;2.60;;;;;;;9.18;84.61;102126.95;104641;1256;75317;-62
2023/12/17 04:58:09;;;;;;;5.90;2.70;;;;;;;9.18;84.63;102133.39;104686;1260;138233;-61
2023/12/17 05:00:36;;;;;;;4.40;2.80;;;;;;;9.17;84.67;102133.91;104655;1256;73883;-62
2023/12/17 05:03:05;;;;;;;5.80;3.50;;;;;;;9.17;84.65;102138.08;104575;1256;139918;-67
2023/12/17 05:05:32;;;;;;;5.30;2.80;;;;;;;9.17;84.73;102132.86;104639;1260;61032;-69
2023/12/17 05:08:00;;;;;;;4.90;2.80;;;;;;;9.18;84.73;102137.23;104714;1260;75645;-70
2023/12/17 05:10:27;;;;;;;6.10;3.30;;;;;;;9.17;84.79;102136.52;104842;1256;138546;-67
2023/12/17 05:12:54;;;;;;;5.60;2.70;;;;;;;9.15;84.72;102136.80;104730;1257;73868;-63
2023/12/17 05:15:21;;;;;;;3.70;2.60;;;;;;;9.15;84.91;102134.66;104557;1257;138600;-61
2023/12/17 05:17:48;;;;;;;5.30;2.80;;;;;;;9.12;84.90;102134.19;104707;1261;61271;-61
2023/12/17 05:20:15;;;;;;;4.10;2.60;;;;;;;9.10;84.99;102134.73;104654;1256;75155;-61
2023/12/17 05:22:41;;;;;;;4.90;2.30;;;;;;;9.07;85.19;102139.13;104440;1260;138459;-61
2023/12/17 05:25:08;;;;;;;5.40;2.30;;;;;;;9.03;85.31;102147.90;104724;1257;73878;-61
2023/12/17 05:27:37;;;;;;;3.20;2.20;;;;;;;9.01;85.41;102147.56;104793;1260;138561;-67
2023/12/17 05:30:04;;;;;;;3.70;2.20;;;;;;;8.97;85.46;102153.33;104570;1258;60100;-67
2023/12/17 05:32:31;;;;;;;4.60;1.90;;;;;;;8.93;85.54;102150.85;108781;1258;74778;-68
2023/12/17 05:34:58;;;;;;;4.20;2.10;;;;;;;8.92;85.73;102166.02;108635;1254;139015;-67
2023/12/17 05:37:24;;;;;;;3.10;2.00;;;;;;;8.91;85.68;102166.33;108760;1256;72690;-67
2023/12/17 05:39:51;;;;;;;4.00;2.30;;;;;;;8.92;85.86;102170.89;108843;1256;138830;-68
2023/12/17 05:42:18;;;;;;;4.20;2.00;;;;;;;8.92;86.08;102176.70;108334;1256;59691;-68
2023/12/17 05:44:45;;;;;;;2.00;1.40;;;;;;;8.93;86.02;102171.14;104635;1258;75567;-60
2023/12/17 05:47:11;;;;;;;4.30;1.90;;;;;;;8.93;85.92;102179.91;104511;1261;138291;-61
2023/12/17 05:49:38;;;;;;;3.20;1.90;;;;;;;8.92;85.95;102177.41;104709;1257;72340;-60
2023/12/17 05:52:07;;;;;;;2.60;1.40;;;;;;;8.91;85.97;102182.06;104517;1257;138540;-61
2023/12/17 05:54:34;;;;;;;3.30;1.50;;;;;;;8.88;85.96;102181.36;108942;1256;61290;-61
2023/12/17 05:57:00;;;;;;;4.00;1.70;;;;;;;8.84;85.95;102182.73;108792;1260;138959;-61
2023/12/17 05:59:27;;;;;;;1.80;1.30;;;;;;;8.82;85.93;102183.30;108823;1257;66022;-61
2023/12/17 06:01:54;;;;;;;2.60;1.60;;;;;;;8.78;85.95;102186.96;108709;1256;74227;-62
2023/12/17 06:04:21;;;;;;;3.00;1.50;;;;;;;8.75;85.95;102188.56;108641;1256;138329;-62
2023/12/17 06:06:48;;;;;;;3.40;1.60;;;;;;;8.73;85.95;102192.48;108763;1256;59100;-62
2023/12/17 06:09:15;;;;;;;2.30;1.40;;;;;;;8.72;86.14;102196.27;107927;1257;138638;-63
2023/12/17 06:11:42;;;;;;;2.50;1.40;;;;;;;8.70;86.09;102195.29;109025;1256;66157;-63
2023/12/17 06:14:10;;;;;;;1.90;1.30;;;;;;;8.68;86.19;102192.91;108908;1255;71445;-66
2023/12/17 06:16:41;;;;;;;3.00;1.80;;;;;;;8.67;86.18;102187.39;106881;1257;138913;-64
2023/12/17 06:19:08;;;;;;;3.60;1.90;;;;;;;8.65;86.14;102188.83;104801;1258;61237;-63
2023/12/17 06:21:35;;;;;;;2.60;1.70;;;;;;;8.60;86.19;102192.39;104707;1255;138859;-63
2023/12/17 06:24:03;;;;;;;4.40;2.30;;;;;;;8.55;86.28;102195.66;104788;1264;66445;-63
2023/12/17 06:26:30;;;;;;;2.50;1.60;;;;;;;8.52;86.25;102192.49;108988;1255;73547;-61
2023/12/17 06:28:57;;;;;;;4.10;2.20;;;;;;;8.50;86.47;102198.48;108692;1256;138362;-61
2023/12/17 06:31:24;;;;;;;3.50;2.20;;;;;;;8.51;86.54;102200.68;108704;1256;60456;-62
2023/12/17 06:33:53;;;;;;;3.60;2.30;;;;;;;8.54;86.75;102200.69;108631;1256;138329;-62
2023/12/17 06:36:20;;;;;;;1.60;1.20;;;;;;;8.58;86.85;102212.44;106720;1257;66332;-62
2023/12/17 06:38:47;;;;;;;2.60;1.70;;;;;;;8.64;86.82;102211.75;104887;1259;72728;-62
2023/12/17 06:41:14;;;;;;;3.70;1.80;;;;;;;8.70;86.88;102213.45;104619;1256;138708;-68
2023/12/17 06:43:41;;;;;;;4.40;1.80;;;;;;;8.74;86.84;102209.69;104704;1259;61252;-68
2023/12/17 06:46:09;;;;;;;3.40;1.70;;;;;;;8.78;86.78;102210.05;104770;1260;138403;-67
2023/12/17 06:48:35;;;;;;;3.40;1.80;;;;;;;8.80;86.76;102201.41;108749;1255;66819;-61
2023/12/17 06:51:03;;;;;;;3.10;1.20;;;;;;;8.83;86.62;102200.34;108716;1256;139413;-66
2023/12/17 06:53:29;;;;;;;1.40;1.10;;;;;;;8.86;86.60;102196.65;108845;1256;59174;-67
2023/12/17 06:55:56;;;;;;;2.60;1.20;;;;;;;8.88;86.56;102192.95;108982;1257;59993;-67
2023/12/17 06:58:23;;;;;;;3.90;1.50;;;;;;;8.91;86.41;102195.54;108899;1256;138308;-66
2023/12/17 07:00:50;;;;;;;2.30;1.40;;;;;;;8.93;86.37;102197.40;108812;1255;66523;-63
2023/12/17 07:03:20;;;;;;;2.50;1.50;;;;;;;8.96;86.36;102203.49;105126;1256;138582;-62
2023/12/17 07:05:47;;;;;;;2.30;1.60;;;;;;;8.98;86.32;102208.17;104549;1258;61239;-67
2023/12/17 07:08:14;;;;;;;3.80;1.80;;;;;;;9.01;86.27;102222.33;104763;1256;62438;-67
2023/12/17 07:10:41;;;;;;;2.10;1.70;;;;;;;9.01;86.15;102219.55;108629;1255;138077;-70
2023/12/17 07:13:07;;;;;;;2.60;1.60;;;;;;;9.02;86.14;102218.02;108711;1256;66436;-69
2023/12/17 07:15:34;;;;;;;1.80;1.20;;;;;;;9.03;86.11;102219.99;108646;1256;139050;-64
2023/12/17 07:18:01;;;;;;;3.20;1.40;;;;;;;9.04;86.05;102226.36;108776;1256;60078;-68
2023/12/17 07:20:28;;;;;;;2.30;1.70;;;;;;;9.06;85.99;102222.97;108791;1256;60966;-67
2023/12/17 07:22:54;;;;;;;2.50;1.60;;;;;;;9.09;85.94;102222.27;108632;1256;137999;-68
2023/12/17 07:25:21;;;;;;;2.30;1.40;;;;;;;9.11;85.91;102229.21;108748;1256;66340;-68
2023/12/17 07:27:48;;;;;;;3.60;2.00;;;;;;;9.12;85.75;102224.91;108649;1256;138167;-67
2023/12/17 07:30:15;;;;;;;2.80;1.60;;;;;;;9.14;85.74;102216.39;107481;1256;59640;-68
2023/12/17 07:32:42;;;;;;;2.40;1.60;;;;;;;9.15;85.71;102202.63;104612;1260;61505;-69
2023/12/17 07:35:09;;;;;;;1.80;1.40;;;;;;;9.17;85.63;102193.80;104519;1259;138548;-69
2023/12/17 07:37:36;;;;;;;1.70;1.10;;;;;;;9.19;85.61;102187.42;104664;1260;66683;-70
2023/12/17 07:40:03;;;;;;;2.40;1.50;;;;;;;9.19;85.43;102183.39;104423;1257;139054;-68
2023/12/17 07:42:30;;;;;;;2.90;1.80;;;;;;;9.19;85.44;102177.96;108715;1256;59618;-69
2023/12/17 07:44:57;;;;;;;2.00;1.60;;;;;;;9.20;85.38;102179.43;107804;1256;138630;-62
2023/12/17 07:47:24;;;;;;;2.60;1.60;;;;;;;9.21;85.37;102180.52;104550;1256;73792;-64
2023/12/17 07:49:51;;;;;;;2.20;1.30;;;;;;;9.22;85.37;102185.46;104644;1256;66974;-63
2023/12/17 07:52:17;;;;;;;1.60;1.30;;;;;;;9.23;85.32;102177.98;104657;1256;138350;-63
2023/12/17 07:54:44;;;;;;;3.00;2.20;;;;;;;9.24;85.18;102179.79;104624;1260;61590;-63
2023/12/17 07:57:11;;;;;;;2.00;1.60;;;;;;;9.26;85.21;102184.98;104749;1260;138929;-68
2023/12/17 07:59:38;;;;;;;4.30;2.90;;;;;;;9.27;85.11;102186.77;104260;1257;75756;-68
2023/12/17 08:02:05;;;;;;;3.10;2.00;;;;;;;9.28;85.08;102194.20;104605;1256;66822;-63
2023/12/17 08:04:34;;;;;;;3.30;2.10;;;;;;;9.29;85.06;102200.05;104517;1260;138310;-63
2023/12/17 08:07:01;;;;;;;3.90;2.90;;;;;;;9.30;85.11;102196.61;104969;1256;61354;-62
2023/12/17 08:09:28;;;;;;;2.80;2.00;;;;;;;9.30;84.93;102204.52;104509;1257;138549;-62
2023/12/17 08:11:55;;;;;;;2.20;1.70;;;;;;;9.30;84.81;102207.28;104228;1256;75368;-62
2023/12/17 08:14:22;;;;;;;3.10;1.60;;;;;;;9.31;84.93;102203.49;104568;1258;66799;-62
2023/12/17 08:16:49;;;;;;;2.70;1.80;;;;;;;9.33;84.85;102202.70;104429;1259;140150;-70
2023/12/17 08:19:16;;;;;;;2.60;2.00;;;;;;;9.36;84.67;102197.08;104597;1260;61308;-68
2023/12/17 08:21:43;;;;;;;2.70;1.90;;;;;;;9.38;84.80;102196.85;104488;1257;138539;-69
2023/12/17 08:24:10;;;;;;;2.60;1.80;;;;;;;9.42;84.74;102191.81;104993;1256;75657;-69
2023/12/17 08:26:37;;;;;;;3.20;2.10;;;;;;;9.45;84.59;102193.89;104648;1255;66904;-68
2023/12/17 08:29:04;;;;;;;2.60;1.80;;;;;;;9.45;84.50;102192.65;104773;1257;138351;-67
2023/12/17 08:31:30;;;;;;;2.10;1.70;;;;;;;9.44;84.42;102180.86;104758;1256;61364;-68
2023/12/17 08:33:57;;;;;;;2.30;1.70;;;;;;;9.44;84.36;102166.49;104731;1260;138377;-67
2023/12/17 08:36:25;;;;;;;4.70;1.80;;;;;;;9.43;84.36;102163.80;104761;1256;75595;-62
2023/12/17 08:38:52;;;;;;;2.20;1.70;;;;;;;9.44;84.32;102162.85;104885;1256;66296;-68
2023/12/17 08:41:18;;;;;;;4.00;2.40;;;;;;;9.45;84.21;102159.54;104819;1260;74248;-68
2023/12/17 08:43:45;;;;;;;2.30;2.10;;;;;;;9.48;84.37;102158.63;104698;1259;61578;-68
2023/12/17 08:46:12;;;;;;;4.70;2.80;;;;;;;9.54;84.40;102160.89;104729;1256;138538;-68
2023/12/17 08:48:39;;;;;;;3.80;2.50;;;;;;;9.59;84.14;102152.55;104982;1260;73696;-63
2023/12/17 08:51:06;;;;;;;2.60;1.90;;;;;;;9.65;84.21;102156.20;104846;1256;138368;-62
2023/12/17 08:53:33;;;;;;;3.70;2.30;;;;;;;9.69;84.12;102162.52;104810;1260;71164;-69
2023/12/17 08:56:00;;;;;;;3.00;2.30;;;;;;;9.71;83.96;102166.46;104936;1256;61243;-68
2023/12/17 08:58:26;;;;;;;3.10;1.80;;;;;;;9.75;83.91;102168.43;104810;1255;138323;-63
2023/12/17 09:00:53;;;;;;;2.40;2.10;;;;;;;9.77;83.96;102172.57;104794;1260;75525;-67
2023/12/17 09:03:20;;;;;;;3.40;2.00;;;;;;;9.82;84.08;102172.63;104760;1256;139044;-68
2023/12/17 09:05:47;;;;;;;3.30;2.40;;;;;;;9.90;84.02;102169.01;104856;1259;72190;-62
2023/12/17 09:08:14;;;;;;;3.80;2.20;;;;;;;10.00;84.07;102165.98;104884;1258;61252;-62
2023/12/17 09:10:41;;;;;;;3.20;2.40;;;;;;;10.09;83.81;102161.00;104603;1260;138705;-63
2023/12/17 09:13:09;;;;;;;3.60;2.40;;;;;;;10.15;83.78;102163.95;108757;1256;75497;-61
2023/12/17 09:15:37;;;;;;;2.00;1.80;;;;;;;10.22;83.55;102172.38;108710;1255;139321;-62
2023/12/17 09:18:05;;;;;;;3.90;2.00;;;;;;;10.25;83.45;102184.80;108767;1256;73424;-62
2023/12/17 09:20:32;;;;;;;2.00;1.80;;;;;;;10.26;83.22;102187.29;108809;1255;61417;-62
2023/12/17 09:22:59;;;;;;;2.80;1.60;;;;;;;10.26;83.01;102192.91;108665;1255;138503;-61
2023/12/17 09:25:26;;;;;;;3.20;2.30;;;;;;;10.23;82.68;102192.27;108777;1256;75086;-61
2023/12/17 09:27:53;;;;;;;2.60;1.90;;;;;;;10.21;82.85;102188.96;108690;1256;138583;-63
2023/12/17 09:30:20;;;;;;;2.00;1.40;;;;;;;10.20;82.80;102194.21;108813;1256;72640;-63
2023/12/17 09:32:48;;;;;;;2.30;1.70;;;;;;;10.20;82.80;102188.59;108839;1256;59310;-63
2023/12/17 09:35:16;;;;;;;3.00;1.80;;;;;;;10.17;82.68;102201.61;108649;1255;138748;-62
2023/12/17 09:37:43;;;;;;;4.20;2.40;;;;;;;10.22;82.83;102199.02;105411;1256;75570;-62
2023/12/17 09:40:15;;;;;;;2.50;1.90;;;;;;;10.36;83.11;102197.98;104417;1256;138729;-62
2023/12/17 09:42:42;;;;;;;3.30;2.00;;;;;;;10.51;83.15;102207.69;106757;1258;73210;-69
2023/12/17 09:45:14;;;;;;;2.70;2.00;;;;;;;10.63;82.86;102206.30;104724;1258;138706;-68
2023/12/17 09:47:42;;;;;;;3.20;1.80;;;;;;;10.70;82.79;102214.54;106113;1258;61183;-68
2023/12/17 09:50:09;;;;;;;1.90;1.40;;;;;;;10.73;82.52;102210.66;105168;1256;74552;-69
2023/12/17 09:52:43;;;;;;;3.50;1.90;;;;;;;10.72;82.31;102212.55;105136;1256;138992;-68
2023/12/17 09:55:10;;;;;;;2.20;1.60;;;;;;;10.72;82.37;102216.39;105607;1256;71937;-69
2023/12/17 09:57:37;;;;;;;3.00;2.00;;;;;;;10.73;82.27;102222.27;104618;1256;138718;-68
2023/12/17 10:00:10;;;;;;;2.80;1.90;;;;;;;10.72;82.28;102223.96;107788;1259;60806;-62
2023/12/17 10:02:39;;;;;;;2.60;2.00;;;;;;;10.71;82.29;102220.58;108819;1256;75573;-62
2023/12/17 10:05:06;;;;;;;3.80;1.90;;;;;;;10.68;82.03;102223.75;108524;1256;138941;-64
2023/12/17 10:07:34;;;;;;;1.60;1.50;;;;;;;10.63;82.07;102228.79;108831;1256;73995;-63
2023/12/17 10:10:00;;;;;;;2.60;1.70;;;;;;;10.59;81.99;102231.73;107741;1256;138482;-69
2023/12/17 10:12:27;;;;;;;3.20;2.20;;;;;;;10.54;82.02;102238.55;105264;1256;61379;-62
2023/12/17 10:14:54;;;;;;;3.90;2.00;;;;;;;10.52;82.04;102239.30;108113;1256;138698;-67
2023/12/17 10:17:21;;;;;;;4.30;2.40;;;;;;;10.51;82.17;102241.91;104741;1262;66825;-69
2023/12/17 10:19:52;;;;;;;3.90;2.50;;;;;;;10.53;82.25;102241.28;105053;1260;71864;-69
2023/12/17 10:22:20;;;;;;;2.80;2.30;;;;;;;10.53;82.27;102242.52;107034;1259;138905;-69
2023/12/17 10:24:47;;;;;;;3.40;2.40;;;;;;;10.53;82.26;102249.36;105407;1256;61316;-69
2023/12/17 10:27:20;;;;;;;5.00;2.30;;;;;;;10.54;82.37;102245.91;104928;1256;138666;-68
2023/12/17 10:29:52;;;;;;;3.60;2.20;;;;;;;10.55;82.34;102243.67;106127;1260;67213;-69
2023/12/17 10:32:23;;;;;;;3.60;2.30;;;;;;;10.55;82.30;102240.88;104967;1260;73912;-70
2023/12/17 10:34:50;;;;;;;4.70;3.40;;;;;;;10.57;82.29;102245.16;105721;1257;138442;-69
2023/12/17 10:37:19;;;;;;;3.40;2.20;;;;;;;10.57;82.21;102239.03;104839;1256;61373;-68
2023/12/17 10:39:49;;;;;;;2.80;2.00;;;;;;;10.57;82.11;102232.70;108862;1256;138287;-68
2023/12/17 10:42:19;;;;;;;3.70;2.50;;;;;;;10.57;82.17;102235.36;108922;1256;173953;-68
2023/12/17 10:44:49;;;;;;;3.50;2.20;;;;;;;10.59;82.16;102231.40;109030;1256;73384;-69
2023/12/17 10:47:19;;;;;;;3.40;2.30;;;;;;;10.57;82.00;102225.70;108892;1255;138338;-68
2023/12/17 10:49:46;;;;;;;3.90;2.20;;;;;;;10.58;82.03;102232.42;108978;1255;59356;-62
2023/12/17 10:52:13;;;;;;;4.50;2.40;;;;;;;10.58;81.93;102222.92;108828;1255;138484;-68
2023/12/17 10:54:40;;;;;;;2.60;1.90;;;;;;;10.58;82.01;102221.19;108976;1256;70218;-68
2023/12/17 10:57:09;;;;;;;2.10;1.70;;;;;;;10.61;82.00;102205.34;108893;1255;138544;-68
2023/12/17 10:59:36;;;;;;;4.60;2.90;;;;;;;10.63;82.02;102205.48;108985;1256;59627;-62
2023/12/17 11:02:03;;;;;;;3.20;2.50;;;;;;;10.68;81.98;102196.38;108858;1256;59328;-68
2023/12/17 11:04:30;;;;;;;3.50;2.30;;;;;;;10.74;82.07;102194.35;105995;1259;138484;-63
2023/12/17 11:06:57;;;;;;;4.20;2.40;;;;;;;10.79;81.88;102201.45;104978;1258;67426;-69
2023/12/17 11:09:24;;;;;;;3.40;1.90;;;;;;;10.80;81.80;102196.79;104609;1257;138958;-68
2023/12/17 11:11:52;;;;;;;3.50;2.10;;;;;;;10.81;81.74;102188.20;104753;1258;61271;-63
2023/12/17 11:14:19;;;;;;;3.50;2.00;;;;;;;10.79;81.70;102186.56;104754;1256;61120;-62
2023/12/17 11:16:46;;;;;;;3.40;2.00;;;;;;;10.77;81.67;102179.23;104678;1256;139474;-62
2023/12/17 11:19:12;;;;;;;1.90;1.60;;;;;;;10.73;81.56;102172.38;105039;1254;65350;-63